sensor_id;sensor_type;location;lat;lon;timestamp;P1;durP1;ratioP1;P2;durP2;ratioP2
57593;SDS011;43423;46.510;6.686;2022-09-12T00:00:27;0.77;;;0.77;;
57593;SDS011;43423;46.510;6.686;2022-09-12T00:03:13;1.25;;;1.00;;
57593;SDS011;43423;46.510;6.686;2022-09-12T00:05:39;1.10;;;1.00;;
57593;SDS011;43423;46.510;6.686;2022-09-12T00:08:06;1.00;;;0.95;;
57593;SDS011;43423;46.510;6.686;2022-09-12T00:10:32;0.80;;;0.80;;
57593;SDS011;43423;46.510;6.686;2022-09-12T00:12:57;0.80;;;0.80;;
57593;SDS011;43423;46.510;6.686;2022-09-12T00:15:23;2.03;;;1.13;;
57593;SDS011;43423;46.510;6.686;2022-09-12T00:17:48;1.38;;;0.82;;
57593;SDS011;43423;46.510;6.686;2022-09-12T00:20:14;1.30;;;1.10;;
57593;SDS011;43423;46.510;6.686;2022-09-12T00:22:39;1.23;;;1.10;;
57593;SDS011;43423;46.510;6.686;2022-09-12T00:25:05;1.25;;;0.98;;
57593;SDS011;43423;46.510;6.686;2022-09-12T00:27:31;1.30;;;1.10;;
57593;SDS011;43423;46.510;6.686;2022-09-12T00:29:56;6.07;;;1.30;;
57593;SDS011;43423;46.510;6.686;2022-09-12T00:32:22;0.85;;;0.85;;
57593;SDS011;43423;46.510;6.686;2022-09-12T00:34:47;3.00;;;1.10;;
57593;SDS011;43423;46.510;6.686;2022-09-12T00:37:13;1.27;;;1.17;;
57593;SDS011;43423;46.510;6.686;2022-09-12T00:39:39;1.17;;;1.10;;
57593;SDS011;43423;46.510;6.686;2022-09-12T00:42:04;0.77;;;0.77;;
57593;SDS011;43423;46.510;6.686;2022-09-12T00:49:27;1.08;;;1.00;;
57593;SDS011;43423;46.510;6.686;2022-09-12T00:52:08;1.10;;;1.00;;
57593;SDS011;43423;46.510;6.686;2022-09-12T00:54:38;2.80;;;0.88;;
57593;SDS011;43423;46.510;6.686;2022-09-12T00:57:08;2.47;;;1.08;;
57593;SDS011;43423;46.510;6.686;2022-09-12T00:59:37;1.67;;;1.20;;
57593;SDS011;43423;46.510;6.686;2022-09-12T01:02:07;1.13;;;0.93;;
57593;SDS011;43423;46.510;6.686;2022-09-12T01:04:34;1.05;;;0.90;;
57593;SDS011;43423;46.510;6.686;2022-09-12T01:07:02;1.60;;;0.80;;
57593;SDS011;43423;46.510;6.686;2022-09-12T01:09:29;1.85;;;0.90;;
57593;SDS011;43423;46.510;6.686;2022-09-12T01:11:54;2.33;;;0.85;;
57593;SDS011;43423;46.510;6.686;2022-09-12T01:14:21;0.73;;;0.73;;
57593;SDS011;43423;46.510;6.686;2022-09-12T01:16:47;1.20;;;0.90;;
57593;SDS011;43423;46.510;6.686;2022-09-12T01:19:24;0.90;;;0.90;;
57593;SDS011;43423;46.510;6.686;2022-09-12T01:27:47;1.60;;;0.90;;
57593;SDS011;43423;46.510;6.686;2022-09-12T01:40:39;1.10;;;1.00;;
57593;SDS011;43423;46.510;6.686;2022-09-12T01:43:21;1.10;;;0.98;;
57593;SDS011;43423;46.510;6.686;2022-09-12T01:45:59;1.10;;;0.95;;
57593;SDS011;43423;46.510;6.686;2022-09-12T01:48:35;1.88;;;1.08;;
57593;SDS011;43423;46.510;6.686;2022-09-12T01:51:21;1.73;;;1.35;;
57593;SDS011;43423;46.510;6.686;2022-09-12T01:53:57;3.35;;;1.20;;
57593;SDS011;43423;46.510;6.686;2022-09-12T01:56:30;1.33;;;1.23;;
57593;SDS011;43423;46.510;6.686;2022-09-12T02:01:59;1.98;;;1.33;;
57593;SDS011;43423;46.510;6.686;2022-09-12T02:04:37;1.10;;;1.00;;
57593;SDS011;43423;46.510;6.686;2022-09-12T02:07:12;1.05;;;0.98;;
57593;SDS011;43423;46.510;6.686;2022-09-12T02:09:45;1.58;;;0.90;;
57593;SDS011;43423;46.510;6.686;2022-09-12T02:12:15;3.22;;;1.08;;
57593;SDS011;43423;46.510;6.686;2022-09-12T02:14:46;1.45;;;1.10;;
57593;SDS011;43423;46.510;6.686;2022-09-12T02:17:18;2.05;;;1.17;;
57593;SDS011;43423;46.510;6.686;2022-09-12T02:19:49;2.53;;;1.00;;
57593;SDS011;43423;46.510;6.686;2022-09-12T02:22:19;1.75;;;1.17;;
57593;SDS011;43423;46.510;6.686;2022-09-12T02:24:48;3.53;;;1.25;;
57593;SDS011;43423;46.510;6.686;2022-09-12T02:27:19;1.10;;;1.00;;
57593;SDS011;43423;46.510;6.686;2022-09-12T02:29:47;0.90;;;0.88;;
57593;SDS011;43423;46.510;6.686;2022-09-12T02:34:53;1.58;;;1.20;;
57593;SDS011;43423;46.510;6.686;2022-09-12T02:39:58;1.20;;;1.00;;
57593;SDS011;43423;46.510;6.686;2022-09-12T02:42:25;0.80;;;0.80;;
57593;SDS011;43423;46.510;6.686;2022-09-12T02:44:50;1.80;;;1.17;;
57593;SDS011;43423;46.510;6.686;2022-09-12T02:48:04;1.02;;;1.02;;
57593;SDS011;43423;46.510;6.686;2022-09-12T02:50:14;1.98;;;1.05;;
57593;SDS011;43423;46.510;6.686;2022-09-12T02:52:41;1.27;;;0.93;;
57593;SDS011;43423;46.510;6.686;2022-09-12T02:55:07;2.55;;;1.05;;
57593;SDS011;43423;46.510;6.686;2022-09-12T02:57:38;0.90;;;0.90;;
57593;SDS011;43423;46.510;6.686;2022-09-12T03:00:04;1.10;;;0.98;;
57593;SDS011;43423;46.510;6.686;2022-09-12T03:05:34;0.80;;;0.80;;
57593;SDS011;43423;46.510;6.686;2022-09-12T03:08:11;4.18;;;1.13;;
57593;SDS011;43423;46.510;6.686;2022-09-12T03:10:54;1.85;;;0.90;;
57593;SDS011;43423;46.510;6.686;2022-09-12T03:13:49;1.92;;;0.98;;
57593;SDS011;43423;46.510;6.686;2022-09-12T03:16:32;1.60;;;0.90;;
57593;SDS011;43423;46.510;6.686;2022-09-12T03:30:02;1.65;;;0.90;;
57593;SDS011;43423;46.510;6.686;2022-09-12T03:32:41;2.25;;;1.25;;
57593;SDS011;43423;46.510;6.686;2022-09-12T03:35:06;1.52;;;1.30;;
57593;SDS011;43423;46.510;6.686;2022-09-12T03:37:32;1.08;;;0.98;;
57593;SDS011;43423;46.510;6.686;2022-09-12T03:39:58;1.30;;;1.15;;
57593;SDS011;43423;46.510;6.686;2022-09-12T03:42:23;1.42;;;1.30;;
57593;SDS011;43423;46.510;6.686;2022-09-12T03:44:49;3.08;;;1.30;;
57593;SDS011;43423;46.510;6.686;2022-09-12T03:47:14;1.88;;;1.10;;
57593;SDS011;43423;46.510;6.686;2022-09-12T03:49:40;1.15;;;1.00;;
57593;SDS011;43423;46.510;6.686;2022-09-12T03:52:05;3.47;;;1.13;;
57593;SDS011;43423;46.510;6.686;2022-09-12T03:54:32;3.53;;;0.98;;
57593;SDS011;43423;46.510;6.686;2022-09-12T03:56:57;1.98;;;0.80;;
57593;SDS011;43423;46.510;6.686;2022-09-12T03:59:23;1.20;;;1.00;;
57593;SDS011;43423;46.510;6.686;2022-09-12T04:01:48;3.83;;;1.30;;
57593;SDS011;43423;46.510;6.686;2022-09-12T04:04:14;1.90;;;1.35;;
57593;SDS011;43423;46.510;6.686;2022-09-12T04:06:39;2.40;;;1.60;;
57593;SDS011;43423;46.510;6.686;2022-09-12T04:09:06;2.38;;;1.33;;
57593;SDS011;43423;46.510;6.686;2022-09-12T04:11:31;7.25;;;1.45;;
57593;SDS011;43423;46.510;6.686;2022-09-12T04:13:57;2.13;;;1.20;;
57593;SDS011;43423;46.510;6.686;2022-09-12T04:16:22;1.35;;;1.20;;
57593;SDS011;43423;46.510;6.686;2022-09-12T04:18:47;1.20;;;1.10;;
57593;SDS011;43423;46.510;6.686;2022-09-12T04:21:14;1.45;;;1.05;;
57593;SDS011;43423;46.510;6.686;2022-09-12T04:23:41;2.20;;;1.42;;
57593;SDS011;43423;46.510;6.686;2022-09-12T04:26:08;3.35;;;1.10;;
57593;SDS011;43423;46.510;6.686;2022-09-12T04:28:35;3.25;;;1.13;;
57593;SDS011;43423;46.510;6.686;2022-09-12T04:31:03;1.65;;;1.30;;
57593;SDS011;43423;46.510;6.686;2022-09-12T04:33:31;3.65;;;1.33;;
57593;SDS011;43423;46.510;6.686;2022-09-12T04:36:01;0.90;;;0.90;;
57593;SDS011;43423;46.510;6.686;2022-09-12T04:38:28;1.23;;;1.00;;
57593;SDS011;43423;46.510;6.686;2022-09-12T04:40:54;2.10;;;1.52;;
57593;SDS011;43423;46.510;6.686;2022-09-12T04:43:20;3.25;;;1.50;;
57593;SDS011;43423;46.510;6.686;2022-09-12T04:45:45;2.47;;;1.13;;
57593;SDS011;43423;46.510;6.686;2022-09-12T04:48:10;1.20;;;1.10;;
57593;SDS011;43423;46.510;6.686;2022-09-12T04:50:37;1.10;;;0.95;;
57593;SDS011;43423;46.510;6.686;2022-09-12T04:53:02;1.67;;;1.10;;
57593;SDS011;43423;46.510;6.686;2022-09-12T04:55:27;2.70;;;1.10;;
57593;SDS011;43423;46.510;6.686;2022-09-12T04:57:53;2.75;;;1.20;;
57593;SDS011;43423;46.510;6.686;2022-09-12T05:00:19;1.05;;;0.90;;
57593;SDS011;43423;46.510;6.686;2022-09-12T05:02:44;2.05;;;1.20;;
57593;SDS011;43423;46.510;6.686;2022-09-12T05:05:10;1.65;;;1.08;;
57593;SDS011;43423;46.510;6.686;2022-09-12T05:07:36;1.17;;;1.00;;
57593;SDS011;43423;46.510;6.686;2022-09-12T05:10:02;1.10;;;1.00;;
57593;SDS011;43423;46.510;6.686;2022-09-12T05:12:29;2.67;;;1.42;;
57593;SDS011;43423;46.510;6.686;2022-09-12T05:14:55;2.33;;;1.20;;
57593;SDS011;43423;46.510;6.686;2022-09-12T05:17:21;1.67;;;1.00;;
57593;SDS011;43423;46.510;6.686;2022-09-12T05:19:47;2.45;;;1.13;;
57593;SDS011;43423;46.510;6.686;2022-09-12T05:22:12;2.15;;;1.00;;
57593;SDS011;43423;46.510;6.686;2022-09-12T05:24:38;1.20;;;1.10;;
57593;SDS011;43423;46.510;6.686;2022-09-12T05:27:07;2.08;;;1.77;;
57593;SDS011;43423;46.510;6.686;2022-09-12T05:29:32;2.08;;;1.00;;
57593;SDS011;43423;46.510;6.686;2022-09-12T05:31:58;1.63;;;0.80;;
57593;SDS011;43423;46.510;6.686;2022-09-12T05:34:23;1.20;;;1.10;;
57593;SDS011;43423;46.510;6.686;2022-09-12T05:36:49;1.63;;;1.27;;
57593;SDS011;43423;46.510;6.686;2022-09-12T05:39:14;0.90;;;0.90;;
57593;SDS011;43423;46.510;6.686;2022-09-12T05:41:40;1.88;;;1.50;;
57593;SDS011;43423;46.510;6.686;2022-09-12T05:44:09;3.13;;;1.13;;
57593;SDS011;43423;46.510;6.686;2022-09-12T05:46:37;2.80;;;1.25;;
57593;SDS011;43423;46.510;6.686;2022-09-12T05:49:05;1.80;;;1.15;;
57593;SDS011;43423;46.510;6.686;2022-09-12T05:51:34;1.55;;;1.23;;
57593;SDS011;43423;46.510;6.686;2022-09-12T05:54:02;4.43;;;1.35;;
57593;SDS011;43423;46.510;6.686;2022-09-12T05:56:30;4.43;;;1.48;;
57593;SDS011;43423;46.510;6.686;2022-09-12T05:58:58;1.70;;;1.00;;
57593;SDS011;43423;46.510;6.686;2022-09-12T06:01:29;2.05;;;1.13;;
57593;SDS011;43423;46.510;6.686;2022-09-12T06:03:57;3.70;;;1.20;;
57593;SDS011;43423;46.510;6.686;2022-09-12T06:06:25;6.53;;;1.27;;
57593;SDS011;43423;46.510;6.686;2022-09-12T06:08:53;7.28;;;1.40;;
57593;SDS011;43423;46.510;6.686;2022-09-12T06:11:27;6.28;;;1.38;;
57593;SDS011;43423;46.510;6.686;2022-09-12T06:13:55;5.25;;;2.10;;
57593;SDS011;43423;46.510;6.686;2022-09-12T06:16:26;2.08;;;1.42;;
57593;SDS011;43423;46.510;6.686;2022-09-12T06:18:56;0.82;;;0.82;;
57593;SDS011;43423;46.510;6.686;2022-09-12T06:23:51;2.03;;;1.30;;
57593;SDS011;43423;46.510;6.686;2022-09-12T06:26:18;4.10;;;1.20;;
57593;SDS011;43423;46.510;6.686;2022-09-12T06:28:49;1.00;;;1.00;;
57593;SDS011;43423;46.510;6.686;2022-09-12T06:31:16;1.20;;;0.98;;
57593;SDS011;43423;46.510;6.686;2022-09-12T06:33:46;2.15;;;1.17;;
57593;SDS011;43423;46.510;6.686;2022-09-12T06:36:13;2.00;;;1.10;;
57593;SDS011;43423;46.510;6.686;2022-09-12T06:38:53;2.25;;;1.65;;
57593;SDS011;43423;46.510;6.686;2022-09-12T06:41:21;3.20;;;1.02;;
57593;SDS011;43423;46.510;6.686;2022-09-12T06:43:47;1.25;;;0.82;;
57593;SDS011;43423;46.510;6.686;2022-09-12T06:46:13;1.67;;;1.10;;
57593;SDS011;43423;46.510;6.686;2022-09-12T06:48:38;1.77;;;1.35;;
57593;SDS011;43423;46.510;6.686;2022-09-12T06:51:14;2.15;;;1.20;;
57593;SDS011;43423;46.510;6.686;2022-09-12T06:53:41;1.80;;;1.63;;
57593;SDS011;43423;46.510;6.686;2022-09-12T06:56:09;2.30;;;1.27;;
57593;SDS011;43423;46.510;6.686;2022-09-12T06:58:36;1.92;;;1.55;;
57593;SDS011;43423;46.510;6.686;2022-09-12T07:01:03;1.40;;;1.27;;
57593;SDS011;43423;46.510;6.686;2022-09-12T07:03:39;1.55;;;1.35;;
57593;SDS011;43423;46.510;6.686;2022-09-12T07:06:09;2.33;;;1.27;;
57593;SDS011;43423;46.510;6.686;2022-09-12T07:08:37;2.05;;;1.20;;
57593;SDS011;43423;46.510;6.686;2022-09-12T07:11:08;1.25;;;1.15;;
57593;SDS011;43423;46.510;6.686;2022-09-12T07:13:40;1.65;;;1.17;;
57593;SDS011;43423;46.510;6.686;2022-09-12T07:16:06;2.55;;;1.42;;
57593;SDS011;43423;46.510;6.686;2022-09-12T07:18:33;1.70;;;1.33;;
57593;SDS011;43423;46.510;6.686;2022-09-12T07:21:00;1.40;;;1.20;;
57593;SDS011;43423;46.510;6.686;2022-09-12T07:23:26;1.80;;;1.20;;
57593;SDS011;43423;46.510;6.686;2022-09-12T07:25:54;2.20;;;1.58;;
57593;SDS011;43423;46.510;6.686;2022-09-12T07:28:25;1.20;;;1.10;;
57593;SDS011;43423;46.510;6.686;2022-09-12T07:30:52;1.23;;;1.15;;
57593;SDS011;43423;46.510;6.686;2022-09-12T07:33:19;3.42;;;1.00;;
57593;SDS011;43423;46.510;6.686;2022-09-12T07:35:45;2.55;;;1.30;;
57593;SDS011;43423;46.510;6.686;2022-09-12T07:38:11;1.90;;;1.40;;
57593;SDS011;43423;46.510;6.686;2022-09-12T07:40:37;4.47;;;1.10;;
57593;SDS011;43423;46.510;6.686;2022-09-12T07:43:03;2.65;;;1.50;;
57593;SDS011;43423;46.510;6.686;2022-09-12T07:45:29;1.90;;;1.45;;
57593;SDS011;43423;46.510;6.686;2022-09-12T07:47:55;2.97;;;1.65;;
57593;SDS011;43423;46.510;6.686;2022-09-12T07:50:20;2.63;;;1.27;;
57593;SDS011;43423;46.510;6.686;2022-09-12T07:52:46;1.55;;;1.30;;
57593;SDS011;43423;46.510;6.686;2022-09-12T07:55:11;2.00;;;1.25;;
57593;SDS011;43423;46.510;6.686;2022-09-12T07:57:37;1.95;;;1.13;;
57593;SDS011;43423;46.510;6.686;2022-09-12T08:00:03;1.90;;;1.30;;
57593;SDS011;43423;46.510;6.686;2022-09-12T08:02:30;3.13;;;1.65;;
57593;SDS011;43423;46.510;6.686;2022-09-12T08:04:56;1.70;;;1.35;;
57593;SDS011;43423;46.510;6.686;2022-09-12T08:07:22;1.73;;;1.42;;
57593;SDS011;43423;46.510;6.686;2022-09-12T08:09:47;1.67;;;1.30;;
57593;SDS011;43423;46.510;6.686;2022-09-12T08:12:13;3.28;;;1.45;;
57593;SDS011;43423;46.510;6.686;2022-09-12T08:14:39;1.10;;;1.10;;
57593;SDS011;43423;46.510;6.686;2022-09-12T08:17:05;1.95;;;1.40;;
57593;SDS011;43423;46.510;6.686;2022-09-12T08:19:30;1.60;;;1.50;;
57593;SDS011;43423;46.510;6.686;2022-09-12T08:21:56;2.05;;;1.45;;
57593;SDS011;43423;46.510;6.686;2022-09-12T08:24:21;3.65;;;1.58;;
57593;SDS011;43423;46.510;6.686;2022-09-12T08:26:47;2.30;;;1.50;;
57593;SDS011;43423;46.510;6.686;2022-09-12T08:29:13;2.83;;;1.65;;
57593;SDS011;43423;46.510;6.686;2022-09-12T08:31:38;2.20;;;1.58;;
57593;SDS011;43423;46.510;6.686;2022-09-12T08:34:05;2.42;;;1.48;;
57593;SDS011;43423;46.510;6.686;2022-09-12T08:36:32;1.42;;;1.33;;
57593;SDS011;43423;46.510;6.686;2022-09-12T08:38:59;1.98;;;1.50;;
57593;SDS011;43423;46.510;6.686;2022-09-12T08:48:59;2.30;;;1.30;;
57593;SDS011;43423;46.510;6.686;2022-09-12T08:51:28;3.28;;;1.50;;
57593;SDS011;43423;46.510;6.686;2022-09-12T08:53:58;2.28;;;1.38;;
57593;SDS011;43423;46.510;6.686;2022-09-12T08:56:27;3.20;;;1.83;;
57593;SDS011;43423;46.510;6.686;2022-09-12T08:58:55;2.30;;;1.67;;
57593;SDS011;43423;46.510;6.686;2022-09-12T09:01:29;2.58;;;1.70;;
57593;SDS011;43423;46.510;6.686;2022-09-12T09:12:06;1.77;;;1.60;;
57593;SDS011;43423;46.510;6.686;2022-09-12T09:20:49;1.50;;;1.40;;
57593;SDS011;43423;46.510;6.686;2022-09-12T09:26:13;2.70;;;1.55;;
57593;SDS011;43423;46.510;6.686;2022-09-12T09:28:53;2.65;;;1.92;;
57593;SDS011;43423;46.510;6.686;2022-09-12T09:31:24;4.10;;;1.70;;
57593;SDS011;43423;46.510;6.686;2022-09-12T09:33:53;2.00;;;1.80;;
57593;SDS011;43423;46.510;6.686;2022-09-12T09:36:36;1.60;;;1.50;;
57593;SDS011;43423;46.510;6.686;2022-09-12T09:42:22;5.60;;;1.70;;
57593;SDS011;43423;46.510;6.686;2022-09-12T09:45:19;1.70;;;1.50;;
57593;SDS011;43423;46.510;6.686;2022-09-12T09:50:23;2.80;;;1.90;;
57593;SDS011;43423;46.510;6.686;2022-09-12T09:52:49;1.80;;;1.60;;
57593;SDS011;43423;46.510;6.686;2022-09-12T09:55:24;3.00;;;1.73;;
57593;SDS011;43423;46.510;6.686;2022-09-12T09:57:55;2.95;;;1.73;;
57593;SDS011;43423;46.510;6.686;2022-09-12T10:05:37;2.25;;;1.50;;
57593;SDS011;43423;46.510;6.686;2022-09-12T10:08:09;6.25;;;1.92;;
57593;SDS011;43423;46.510;6.686;2022-09-12T10:16:05;2.63;;;1.30;;
57593;SDS011;43423;46.510;6.686;2022-09-12T10:18:52;1.67;;;1.50;;
57593;SDS011;43423;46.510;6.686;2022-09-12T10:21:30;1.80;;;1.70;;
57593;SDS011;43423;46.510;6.686;2022-09-12T10:23:59;2.58;;;1.75;;
57593;SDS011;43423;46.510;6.686;2022-09-12T10:26:48;4.05;;;1.70;;
57593;SDS011;43423;46.510;6.686;2022-09-12T10:29:30;2.20;;;1.80;;
57593;SDS011;43423;46.510;6.686;2022-09-12T10:31:58;2.33;;;1.88;;
57593;SDS011;43423;46.510;6.686;2022-09-12T10:34:30;4.10;;;1.73;;
57593;SDS011;43423;46.510;6.686;2022-09-12T10:37:05;1.67;;;1.58;;
57593;SDS011;43423;46.510;6.686;2022-09-12T10:39:33;2.35;;;1.40;;
57593;SDS011;43423;46.510;6.686;2022-09-12T10:42:02;4.30;;;1.40;;
57593;SDS011;43423;46.510;6.686;2022-09-12T10:44:31;4.30;;;1.50;;
57593;SDS011;43423;46.510;6.686;2022-09-12T10:46:59;2.08;;;1.63;;
57593;SDS011;43423;46.510;6.686;2022-09-12T10:49:42;5.63;;;1.73;;
57593;SDS011;43423;46.510;6.686;2022-09-12T10:52:21;2.03;;;1.50;;
57593;SDS011;43423;46.510;6.686;2022-09-12T10:54:48;1.48;;;1.38;;
57593;SDS011;43423;46.510;6.686;2022-09-12T10:57:22;2.15;;;1.55;;
57593;SDS011;43423;46.510;6.686;2022-09-12T11:05:37;1.80;;;1.70;;
57593;SDS011;43423;46.510;6.686;2022-09-12T11:10:54;3.75;;;1.75;;
57593;SDS011;43423;46.510;6.686;2022-09-12T11:13:57;2.90;;;1.65;;
57593;SDS011;43423;46.510;6.686;2022-09-12T11:21:54;2.28;;;1.73;;
57593;SDS011;43423;46.510;6.686;2022-09-12T11:27:18;3.10;;;1.88;;
57593;SDS011;43423;46.510;6.686;2022-09-12T11:30:06;3.08;;;1.42;;
57593;SDS011;43423;46.510;6.686;2022-09-12T11:40:54;2.28;;;1.40;;
57593;SDS011;43423;46.510;6.686;2022-09-12T11:43:40;2.10;;;1.58;;
57593;SDS011;43423;46.510;6.686;2022-09-12T11:46:33;1.50;;;1.40;;
57593;SDS011;43423;46.510;6.686;2022-09-12T11:57:25;1.97;;;1.53;;
57593;SDS011;43423;46.510;6.686;2022-09-12T11:59:56;1.80;;;1.30;;
57593;SDS011;43423;46.510;6.686;2022-09-12T12:02:27;2.70;;;1.38;;
57593;SDS011;43423;46.510;6.686;2022-09-12T12:07:26;2.83;;;1.30;;
57593;SDS011;43423;46.510;6.686;2022-09-12T12:10:03;1.27;;;1.20;;
57593;SDS011;43423;46.510;6.686;2022-09-12T12:12:29;1.55;;;1.45;;
57593;SDS011;43423;46.510;6.686;2022-09-12T12:14:55;2.72;;;1.70;;
57593;SDS011;43423;46.510;6.686;2022-09-12T12:17:23;1.20;;;1.10;;
57593;SDS011;43423;46.510;6.686;2022-09-12T12:20:02;2.05;;;1.30;;
57593;SDS011;43423;46.510;6.686;2022-09-12T12:22:29;2.97;;;1.40;;
57593;SDS011;43423;46.510;6.686;2022-09-12T12:43:41;2.90;;;1.08;;
57593;SDS011;43423;46.510;6.686;2022-09-12T12:46:15;2.97;;;1.20;;
57593;SDS011;43423;46.510;6.686;2022-09-12T12:48:43;1.27;;;1.17;;
57593;SDS011;43423;46.510;6.686;2022-09-12T12:53:59;1.80;;;1.00;;
57593;SDS011;43423;46.510;6.686;2022-09-12T12:59:03;1.38;;;1.15;;
57593;SDS011;43423;46.510;6.686;2022-09-12T13:01:54;2.05;;;1.20;;
57593;SDS011;43423;46.510;6.686;2022-09-12T13:04:23;1.10;;;1.00;;
57593;SDS011;43423;46.510;6.686;2022-09-12T13:07:02;0.80;;;0.80;;
57593;SDS011;43423;46.510;6.686;2022-09-12T13:09:32;0.90;;;0.90;;
57593;SDS011;43423;46.510;6.686;2022-09-12T13:12:08;0.80;;;0.80;;
57593;SDS011;43423;46.510;6.686;2022-09-12T13:14:47;0.80;;;0.80;;
57593;SDS011;43423;46.510;6.686;2022-09-12T13:17:15;0.70;;;0.70;;
57593;SDS011;43423;46.510;6.686;2022-09-12T13:20:02;1.00;;;0.82;;
57593;SDS011;43423;46.510;6.686;2022-09-12T13:22:45;0.90;;;0.90;;
57593;SDS011;43423;46.510;6.686;2022-09-12T13:33:13;0.90;;;0.90;;
57593;SDS011;43423;46.510;6.686;2022-09-12T13:38:45;2.72;;;0.90;;
57593;SDS011;43423;46.510;6.686;2022-09-12T13:41:27;1.38;;;1.17;;
57593;SDS011;43423;46.510;6.686;2022-09-12T13:43:59;0.63;;;0.63;;
57593;SDS011;43423;46.510;6.686;2022-09-12T13:46:27;0.70;;;0.70;;
57593;SDS011;43423;46.510;6.686;2022-09-12T13:48:57;1.70;;;0.90;;
57593;SDS011;43423;46.510;6.686;2022-09-12T13:51:26;0.75;;;0.75;;
57593;SDS011;43423;46.510;6.686;2022-09-12T13:53:56;0.73;;;0.73;;
57593;SDS011;43423;46.510;6.686;2022-09-12T13:56:26;1.15;;;0.50;;
57593;SDS011;43423;46.510;6.686;2022-09-12T13:58:53;2.35;;;0.75;;
57593;SDS011;43423;46.510;6.686;2022-09-12T14:01:23;0.70;;;0.70;;
57593;SDS011;43423;46.510;6.686;2022-09-12T14:04:01;0.82;;;0.80;;
57593;SDS011;43423;46.510;6.686;2022-09-12T14:07:23;5.20;;;0.80;;
57593;SDS011;43423;46.510;6.686;2022-09-12T14:09:56;1.15;;;0.65;;
57593;SDS011;43423;46.510;6.686;2022-09-12T14:12:26;0.73;;;0.73;;
57593;SDS011;43423;46.510;6.686;2022-09-12T14:14:55;2.00;;;0.80;;
57593;SDS011;43423;46.510;6.686;2022-09-12T14:17:32;1.45;;;0.95;;
57593;SDS011;43423;46.510;6.686;2022-09-12T14:20:01;3.30;;;0.98;;
57593;SDS011;43423;46.510;6.686;2022-09-12T14:22:32;0.75;;;0.70;;
57593;SDS011;43423;46.510;6.686;2022-09-12T14:24:59;0.88;;;0.88;;
57593;SDS011;43423;46.510;6.686;2022-09-12T14:27:28;0.80;;;0.60;;
57593;SDS011;43423;46.510;6.686;2022-09-12T14:35:36;2.28;;;0.70;;
57593;SDS011;43423;46.510;6.686;2022-09-12T14:38:05;3.80;;;1.23;;
57593;SDS011;43423;46.510;6.686;2022-09-12T14:40:41;0.77;;;0.77;;
57593;SDS011;43423;46.510;6.686;2022-09-12T14:43:25;0.73;;;0.73;;
57593;SDS011;43423;46.510;6.686;2022-09-12T14:45:57;0.70;;;0.70;;
57593;SDS011;43423;46.510;6.686;2022-09-12T14:48:29;1.27;;;0.77;;
57593;SDS011;43423;46.510;6.686;2022-09-12T14:50:59;2.22;;;0.93;;
57593;SDS011;43423;46.510;6.686;2022-09-12T14:56:11;0.80;;;0.80;;
57593;SDS011;43423;46.510;6.686;2022-09-12T14:58:37;1.00;;;0.90;;
57593;SDS011;43423;46.510;6.686;2022-09-12T15:03:47;0.93;;;0.90;;
57593;SDS011;43423;46.510;6.686;2022-09-12T15:06:19;2.17;;;1.13;;
57593;SDS011;43423;46.510;6.686;2022-09-12T15:08:47;0.82;;;0.82;;
57593;SDS011;43423;46.510;6.686;2022-09-12T15:11:12;2.15;;;0.90;;
57593;SDS011;43423;46.510;6.686;2022-09-12T15:13:39;0.90;;;0.90;;
57593;SDS011;43423;46.510;6.686;2022-09-12T15:16:06;1.08;;;0.93;;
57593;SDS011;43423;46.510;6.686;2022-09-12T15:18:34;1.23;;;0.80;;
57593;SDS011;43423;46.510;6.686;2022-09-12T15:21:01;2.17;;;1.10;;
57593;SDS011;43423;46.510;6.686;2022-09-12T15:26:05;0.90;;;0.90;;
57593;SDS011;43423;46.510;6.686;2022-09-12T15:28:32;0.73;;;0.70;;
57593;SDS011;43423;46.510;6.686;2022-09-12T15:31:01;2.28;;;1.00;;
57593;SDS011;43423;46.510;6.686;2022-09-12T15:33:30;0.98;;;0.90;;
57593;SDS011;43423;46.510;6.686;2022-09-12T15:35:55;0.95;;;0.95;;
57593;SDS011;43423;46.510;6.686;2022-09-12T15:38:21;2.50;;;1.13;;
57593;SDS011;43423;46.510;6.686;2022-09-12T15:40:48;3.58;;;1.20;;
57593;SDS011;43423;46.510;6.686;2022-09-12T15:43:17;1.45;;;1.13;;
57593;SDS011;43423;46.510;6.686;2022-09-12T15:45:44;1.45;;;0.88;;
57593;SDS011;43423;46.510;6.686;2022-09-12T15:48:11;1.42;;;0.98;;
57593;SDS011;43423;46.510;6.686;2022-09-12T15:50:37;2.42;;;1.08;;
57593;SDS011;43423;46.510;6.686;2022-09-12T15:53:05;1.13;;;1.00;;
57593;SDS011;43423;46.510;6.686;2022-09-12T15:55:31;1.10;;;1.00;;
57593;SDS011;43423;46.510;6.686;2022-09-12T15:57:57;2.08;;;1.27;;
57593;SDS011;43423;46.510;6.686;2022-09-12T16:00:23;4.88;;;1.45;;
57593;SDS011;43423;46.510;6.686;2022-09-12T16:02:50;1.55;;;1.10;;
57593;SDS011;43423;46.510;6.686;2022-09-12T16:05:19;1.30;;;1.00;;
57593;SDS011;43423;46.510;6.686;2022-09-12T16:07:50;3.63;;;0.90;;
57593;SDS011;43423;46.510;6.686;2022-09-12T16:10:24;2.25;;;1.40;;
57593;SDS011;43423;46.510;6.686;2022-09-12T16:12:53;1.30;;;1.10;;
57593;SDS011;43423;46.510;6.686;2022-09-12T16:15:19;0.95;;;0.80;;
57593;SDS011;43423;46.510;6.686;2022-09-12T16:17:46;0.80;;;0.80;;
57593;SDS011;43423;46.510;6.686;2022-09-12T16:20:13;1.98;;;1.10;;
57593;SDS011;43423;46.510;6.686;2022-09-12T16:22:38;0.75;;;0.75;;
57593;SDS011;43423;46.510;6.686;2022-09-12T16:25:04;0.93;;;0.90;;
57593;SDS011;43423;46.510;6.686;2022-09-12T16:27:30;2.50;;;0.93;;
57593;SDS011;43423;46.510;6.686;2022-09-12T16:29:56;1.10;;;0.88;;
57593;SDS011;43423;46.510;6.686;2022-09-12T16:32:22;1.67;;;1.00;;
57593;SDS011;43423;46.510;6.686;2022-09-12T16:34:47;1.10;;;0.80;;
57593;SDS011;43423;46.510;6.686;2022-09-12T16:37:14;1.33;;;1.02;;
57593;SDS011;43423;46.510;6.686;2022-09-12T16:39:39;3.20;;;1.23;;
57593;SDS011;43423;46.510;6.686;2022-09-12T16:42:05;0.95;;;0.90;;
57593;SDS011;43423;46.510;6.686;2022-09-12T16:44:30;0.82;;;0.82;;
57593;SDS011;43423;46.510;6.686;2022-09-12T16:46:56;0.95;;;0.93;;
57593;SDS011;43423;46.510;6.686;2022-09-12T16:49:22;1.13;;;1.02;;
57593;SDS011;43423;46.510;6.686;2022-09-12T16:51:47;2.25;;;1.10;;
57593;SDS011;43423;46.510;6.686;2022-09-12T16:54:13;2.42;;;1.02;;
57593;SDS011;43423;46.510;6.686;2022-09-12T16:56:40;1.05;;;0.80;;
57593;SDS011;43423;46.510;6.686;2022-09-12T16:59:06;1.20;;;1.10;;
57593;SDS011;43423;46.510;6.686;2022-09-12T17:01:34;1.52;;;0.90;;
57593;SDS011;43423;46.510;6.686;2022-09-12T17:04:00;0.90;;;0.90;;
57593;SDS011;43423;46.510;6.686;2022-09-12T17:06:26;1.00;;;0.90;;
57593;SDS011;43423;46.510;6.686;2022-09-12T17:08:54;1.00;;;0.90;;
57593;SDS011;43423;46.510;6.686;2022-09-12T17:11:32;1.00;;;1.00;;
57593;SDS011;43423;46.510;6.686;2022-09-12T17:14:00;0.90;;;0.80;;
57593;SDS011;43423;46.510;6.686;2022-09-12T17:16:27;2.95;;;1.15;;
57593;SDS011;43423;46.510;6.686;2022-09-12T17:18:53;1.15;;;0.90;;
57593;SDS011;43423;46.510;6.686;2022-09-12T17:21:19;1.05;;;1.00;;
57593;SDS011;43423;46.510;6.686;2022-09-12T17:23:45;1.08;;;1.02;;
57593;SDS011;43423;46.510;6.686;2022-09-12T17:26:11;1.20;;;1.10;;
57593;SDS011;43423;46.510;6.686;2022-09-12T17:28:37;1.23;;;1.10;;
57593;SDS011;43423;46.510;6.686;2022-09-12T17:31:05;1.60;;;1.02;;
57593;SDS011;43423;46.510;6.686;2022-09-12T17:33:32;1.00;;;1.00;;
57593;SDS011;43423;46.510;6.686;2022-09-12T17:36:02;1.58;;;0.90;;
57593;SDS011;43423;46.510;6.686;2022-09-12T17:38:30;0.80;;;0.80;;
57593;SDS011;43423;46.510;6.686;2022-09-12T17:41:08;1.05;;;0.98;;
57593;SDS011;43423;46.510;6.686;2022-09-12T17:43:35;1.10;;;1.00;;
57593;SDS011;43423;46.510;6.686;2022-09-12T17:46:02;2.38;;;1.10;;
57593;SDS011;43423;46.510;6.686;2022-09-12T17:48:28;1.50;;;1.40;;
57593;SDS011;43423;46.510;6.686;2022-09-12T17:50:55;3.03;;;1.25;;
57593;SDS011;43423;46.510;6.686;2022-09-12T17:53:20;1.55;;;1.27;;